Qu'Appelle, Canada
Current Conditions -  °F | °C
As of 5:00 AM on Monday 20 Oct 2014 (Local Time) from CYQR Reporting Station
Clear Clear  
Wind Chill: 32°   Ceiling: Unl
Heat Index: 39°   Visibility: 15mi
Dew Point: 36°   Wind: 13mph
Humidity: 87%   Direction: 120°ESE
Pressure: 29.9"   Gusts: NA
Location:  50.53°N, 103.87°W
Report Text: CYQR 201100Z 12011KT 15SM SKC 04/02 A2990 RMK SLP139
Loading
Personal Weather Stations






























Interactive Weather Map
Tropical Storm Tracking
New forecast layout! Learn more

10-Day Weather Forecast

Advertisements
Track Severe Weather on mobile